Time,TemperatureF,DewpointF,PressureIn,WindDirection,WindDirectionDegrees,WindSpeedMPH,WindSpeedGustMPH,Humidity,HourlyPrecipIn,Conditions,Clouds,dailyrainin,SolarRadiationWatts/m^2,SoftwareType,DateUTC
2013-03-28 11:52:00,44.0,14.0,-100.00,WNW,288,14.0,25.0,29,-99.99,,,0.00,894.000000,,2013-03-28 17:52:00,
2013-03-28 12:52:00,45.0,12.0,-100.00,WNW,286,12.0,26.0,26,0.00,,,0.00,995.000000,,2013-03-28 18:52:00,
2013-03-28 13:22:00,45.0,12.0,-100.00,WNW,286,12.0,26.0,26,0.00,,,0.00,995.000000,,2013-03-28 19:22:00,
2013-03-28 13:33:00,45.0,12.0,-100.00,WNW,286,12.0,26.0,26,0.00,,,0.00,995.000000,,2013-03-28 19:33:00,
2013-03-28 13:42:00,45.0,12.0,-100.00,WNW,286,12.0,26.0,26,0.00,,,0.00,995.000000,,2013-03-28 19:42:00,
2013-03-28 13:52:00,44.0,16.0,-100.00,WSW,258,9.0,19.0,32,0.00,,,0.00,546.000000,,2013-03-28 19:52:00,
2013-03-28 14:12:00,44.0,16.0,-100.00,WSW,258,9.0,19.0,32,0.00,,,0.00,546.000000,,2013-03-28 20:12:00,
2013-03-28 14:22:00,44.0,16.0,-100.00,WSW,258,9.0,19.0,32,0.00,,,0.00,546.000000,,2013-03-28 20:22:00,
2013-03-28 14:32:00,44.0,16.0,-100.00,WSW,258,9.0,19.0,32,0.00,,,0.00,546.000000,,2013-03-28 20:32:00,
2013-03-28 14:42:00,44.0,16.0,-100.00,WSW,258,9.0,19.0,32,0.00,,,0.00,546.000000,,2013-03-28 20:42:00,
2013-03-28 14:52:00,50.0,18.0,-100.00,SW,226,11.0,19.0,28,0.00,,,0.00,920.000000,,2013-03-28 20:52:00,
2013-03-28 15:12:00,50.0,18.0,-100.00,SW,226,11.0,19.0,28,0.00,,,0.00,920.000000,,2013-03-28 21:12:00,
2013-03-28 15:22:00,50.0,18.0,-100.00,SW,226,11.0,19.0,28,0.00,,,0.00,920.000000,,2013-03-28 21:22:00,
2013-03-28 15:32:00,50.0,18.0,-100.00,SW,226,11.0,19.0,28,0.00,,,0.00,920.000000,,2013-03-28 21:32:00,
2013-03-28 15:43:00,50.0,18.0,-100.00,SW,226,11.0,19.0,28,0.00,,,0.00,920.000000,,2013-03-28 21:43:00,
2013-03-28 15:52:00,45.0,18.0,-100.00,West,279,10.0,17.0,33,0.00,,,0.00,748.000000,,2013-03-28 21:52:00,
2013-03-28 16:22:00,45.0,18.0,-100.00,West,279,10.0,17.0,33,0.00,,,0.00,748.000000,,2013-03-28 22:22:00,
2013-03-28 16:32:00,45.0,18.0,-100.00,West,279,10.0,17.0,33,0.00,,,0.00,748.000000,,2013-03-28 22:32:00,
2013-03-28 16:42:00,45.0,18.0,-100.00,West,279,10.0,17.0,33,0.00,,,0.00,748.000000,,2013-03-28 22:42:00,
2013-03-28 16:52:00,47.0,16.0,-100.00,West,280,10.0,19.0,28,0.00,,,0.00,617.000000,,2013-03-28 22:52:00,
2013-03-28 17:12:00,47.0,16.0,-100.00,West,280,10.0,19.0,28,0.00,,,0.00,617.000000,,2013-03-28 23:12:00,
2013-03-28 17:22:00,47.0,16.0,-100.00,West,280,10.0,19.0,28,0.00,,,0.00,617.000000,,2013-03-28 23:22:00,
2013-03-28 17:32:00,47.0,16.0,-100.00,West,280,10.0,19.0,28,0.00,,,0.00,617.000000,,2013-03-28 23:32:00,
2013-03-28 17:42:00,47.0,16.0,-100.00,West,280,10.0,19.0,28,0.00,,,0.00,617.000000,,2013-03-28 23:42:00,
2013-03-28 17:52:00,46.0,16.0,-100.00,WNW,282,9.0,20.0,30,0.00,,,0.00,491.000000,,2013-03-28 23:52:00,
2013-03-28 18:12:00,46.0,16.0,-100.00,WNW,282,9.0,20.0,30,0.00,,,0.00,491.000000,,2013-03-29 00:12:00,
2013-03-28 18:22:00,46.0,16.0,-100.00,WNW,282,9.0,20.0,30,0.00,,,0.00,491.000000,,2013-03-29 00:22:00,
2013-03-28 18:32:00,46.0,16.0,-100.00,WNW,282,9.0,20.0,30,0.00,,,0.00,491.000000,,2013-03-29 00:32:00,
2013-03-28 18:42:00,46.0,16.0,-100.00,WNW,282,9.0,20.0,30,0.00,,,0.00,491.000000,,2013-03-29 00:42:00,
2013-03-28 18:52:00,41.0,19.0,-100.00,WNW,284,7.0,16.0,40,0.00,,,-99.99,242.000000,,2013-03-29 00:52:00,
2013-03-28 19:12:00,41.0,19.0,-100.00,WNW,284,7.0,16.0,40,0.00,,,-99.99,242.000000,,2013-03-29 01:12:00,
2013-03-28 19:22:00,41.0,19.0,-100.00,WNW,284,7.0,16.0,40,0.00,,,-99.99,242.000000,,2013-03-29 01:22:00,
2013-03-28 19:32:00,41.0,19.0,-100.00,WNW,284,7.0,16.0,40,0.00,,,-99.99,242.000000,,2013-03-29 01:32:00,
2013-03-28 19:42:00,41.0,19.0,-100.00,WNW,284,7.0,16.0,40,0.00,,,-99.99,242.000000,,2013-03-29 01:42:00,
2013-03-28 19:52:00,36.0,20.0,-100.00,NNE,17,0.0,6.0,51,0.00,,,-99.99,30.000000,,2013-03-29 01:52:00,
2013-03-28 20:12:00,36.0,20.0,-100.00,NNE,17,0.0,6.0,51,0.00,,,-99.99,30.000000,,2013-03-29 02:12:00,
2013-03-28 20:22:00,36.0,20.0,-100.00,NNE,17,0.0,6.0,51,0.00,,,-99.99,30.000000,,2013-03-29 02:22:00,
2013-03-28 20:32:00,36.0,20.0,-100.00,NNE,17,0.0,6.0,51,0.00,,,-99.99,30.000000,,2013-03-29 02:32:00,
2013-03-28 20:42:00,36.0,20.0,-100.00,NNE,17,0.0,6.0,51,0.00,,,-99.99,30.000000,,2013-03-29 02:42:00,
2013-03-28 20:52:00,29.0,20.0,-100.00,North,353,2.0,6.0,70,0.00,,,-99.99,0.000000,,2013-03-29 02:52:00,
2013-03-28 21:22:00,29.0,20.0,-100.00,North,353,2.0,6.0,70,0.00,,,-99.99,0.000000,,2013-03-29 03:22:00,
2013-03-28 21:32:00,29.0,20.0,-100.00,North,353,2.0,6.0,70,0.00,,,-99.99,0.000000,,2013-03-29 03:32:00,
2013-03-28 21:42:00,29.0,20.0,-100.00,North,353,2.0,6.0,70,0.00,,,-99.99,0.000000,,2013-03-29 03:42:00,
2013-03-28 21:52:00,28.0,20.0,-100.00,South,178,1.0,6.0,73,0.00,,,-99.99,0.000000,,2013-03-29 03:52:00,
2013-03-28 22:22:00,28.0,20.0,-100.00,South,178,1.0,6.0,73,0.00,,,-99.99,0.000000,,2013-03-29 04:22:00,
2013-03-28 22:33:00,28.0,20.0,-100.00,South,178,1.0,6.0,73,0.00,,,-99.99,0.000000,,2013-03-29 04:33:00,
2013-03-28 22:43:00,28.0,20.0,-100.00,South,178,1.0,6.0,73,0.00,,,-99.99,0.000000,,2013-03-29 04:43:00,
2013-03-28 22:52:00,26.0,21.0,-100.00,NNW,327,0.0,2.0,80,0.00,,,-99.99,0.000000,,2013-03-29 04:52:00,
2013-03-28 23:12:00,26.0,21.0,-100.00,NNW,327,0.0,2.0,80,0.00,,,-99.99,0.000000,,2013-03-29 05:12:00,
2013-03-28 23:23:00,26.0,21.0,-100.00,NNW,327,0.0,2.0,80,0.00,,,-99.99,0.000000,,2013-03-29 05:23:00,
2013-03-28 23:33:00,26.0,21.0,-100.00,NNW,327,0.0,2.0,80,0.00,,,-99.99,0.000000,,2013-03-29 05:33:00,
2013-03-28 23:43:00,26.0,21.0,-100.00,NNW,327,0.0,2.0,80,0.00,,,-99.99,0.000000,,2013-03-29 05:43:00,
2013-03-28 23:52:00,32.0,22.0,-100.00,South,174,1.0,8.0,65,0.00,,,-99.99,0.000000,,2013-03-29 05:52:00,